Time;durP1;ratioP1;P1;durP2;ratioP2;P2;SDS_P1;SDS_P2;PMS_P1;PMS_P2;Temp;Humidity;BMP_temperature;BMP_pressure;BME280_temperature;BME280_humidity;BME280_pressure;Samples;Min_cycle;Max_cycle;Signal;HPM_P1;HPM_P2
2023/07/20 00:34:48;;;;;;;16.55;8.50;;;;;;;;;;8322359;27;1855328;-90
2023/07/20 00:38:50;;;;;;;12.82;8.35;;;;;;;;;;8382695;28;20040;-92
2023/07/20 00:42:53;;;;;;;12.57;9.00;;;;;;;;;;8376301;28;20053;-92
2023/07/20 00:46:56;;;;;;;12.52;7.97;;;;;;;;;;8384189;28;20048;-92
2023/07/20 00:51:02;;;;;;;9.75;7.45;;;;;;;;;;8378834;28;20593;-92
2023/07/20 00:55:06;;;;;;;8.18;6.45;;;;;;;;;;8374281;28;20131;-86
2023/07/20 00:59:09;;;;;;;10.98;7.97;;;;;;;;;;8366283;28;20374;-91
2023/07/20 01:03:11;;;;;;;11.45;7.13;;;;;;;;;;8366449;28;20090;-88
2023/07/20 01:07:20;;;;;;;11.35;7.43;;;;;;;;;;8352718;28;20117;-90
2023/07/20 01:11:32;;;;;;;13.82;8.65;;;;;;;;;;8352225;28;20101;-91
2023/07/20 01:15:35;;;;;;;10.10;7.22;;;;;;;;;;8353686;27;20051;-90
2023/07/20 01:19:38;;;;;;;10.35;7.88;;;;;;;;;;8352980;28;20049;-91
2023/07/20 01:24:19;;;;;;;11.88;8.45;;;;;;;;;;8362945;28;20096;-91
2023/07/20 01:28:44;;;;;;;12.32;7.93;;;;;;;;;;8352950;28;20045;-91
2023/07/20 01:32:49;;;;;;;11.50;8.35;;;;;;;;;;8360387;28;20077;-91
2023/07/20 01:36:53;;;;;;;11.48;8.10;;;;;;;;;;8346044;28;20099;-89
2023/07/20 01:40:57;;;;;;;10.82;7.50;;;;;;;;;;8344339;28;20049;-90
2023/07/20 01:44:59;;;;;;;8.93;6.53;;;;;;;;;;8355946;28;20080;-91
2023/07/20 01:49:04;;;;;;;10.00;6.57;;;;;;;;;;8348121;28;20049;-92
2023/07/20 01:53:06;;;;;;;9.80;6.97;;;;;;;;;;8351298;28;20168;-89
2023/07/20 01:57:10;;;;;;;9.88;7.10;;;;;;;;;;8353533;28;20053;-86
2023/07/20 02:01:13;;;;;;;10.80;7.18;;;;;;;;;;8358210;28;20041;-86
2023/07/20 02:05:17;;;;;;;8.55;6.78;;;;;;;;;;8360595;28;20240;-86
2023/07/20 02:09:20;;;;;;;9.75;7.15;;;;;;;;;;8358521;28;20472;-91
2023/07/20 02:13:23;;;;;;;9.82;6.55;;;;;;;;;;8357990;28;20177;-90
2023/07/20 02:17:25;;;;;;;7.40;6.00;;;;;;;;;;8347918;28;20551;-91
2023/07/20 02:21:30;;;;;;;8.40;6.15;;;;;;;;;;8340812;28;20045;-89
2023/07/20 02:25:33;;;;;;;7.88;6.30;;;;;;;;;;8328119;28;20078;-91
2023/07/20 02:29:35;;;;;;;8.50;6.05;;;;;;;;;;8334025;28;20041;-91
2023/07/20 02:33:38;;;;;;;10.60;5.90;;;;;;;;;;8340961;28;20389;-89
2023/07/20 02:37:43;;;;;;;8.85;6.15;;;;;;;;;;8342539;28;20049;-90
2023/07/20 02:41:45;;;;;;;12.10;6.32;;;;;;;;;;8339265;28;20049;-92
2023/07/20 02:45:48;;;;;;;9.45;5.88;;;;;;;;;;8328605;28;20046;-92
2023/07/20 02:49:51;;;;;;;9.63;5.80;;;;;;;;;;8338607;28;20052;-90
2023/07/20 02:53:55;;;;;;;9.30;6.05;;;;;;;;;;8355673;28;20148;-90
2023/07/20 02:57:58;;;;;;;9.27;6.57;;;;;;;;;;8346875;28;20053;-90
2023/07/20 03:02:01;;;;;;;11.30;7.07;;;;;;;;;;8346555;28;20518;-87
2023/07/20 03:06:04;;;;;;;8.85;6.32;;;;;;;;;;8346784;28;20075;-89
2023/07/20 03:10:09;;;;;;;8.75;5.78;;;;;;;;;;8332825;28;20068;-86
2023/07/20 03:14:12;;;;;;;8.73;5.22;;;;;;;;;;8333407;28;20049;-89
2023/07/20 03:18:15;;;;;;;9.27;5.88;;;;;;;;;;8353041;28;20132;-89
2023/07/20 03:22:18;;;;;;;11.55;6.35;;;;;;;;;;8347920;28;20112;-88
2023/07/20 03:26:22;;;;;;;9.35;6.28;;;;;;;;;;8357076;28;20097;-85
2023/07/20 03:30:25;;;;;;;8.27;5.53;;;;;;;;;;8339329;28;20067;-90
2023/07/20 03:34:28;;;;;;;8.88;6.35;;;;;;;;;;8339086;28;20488;-89
2023/07/20 03:38:31;;;;;;;8.70;5.65;;;;;;;;;;8347705;28;20135;-91
2023/07/20 03:42:36;;;;;;;13.65;7.03;;;;;;;;;;8344298;28;20055;-91
2023/07/20 03:46:38;;;;;;;11.15;6.57;;;;;;;;;;8349882;28;20049;-90
2023/07/20 03:50:41;;;;;;;6.80;5.20;;;;;;;;;;8339073;28;20057;-89
2023/07/20 03:54:44;;;;;;;8.57;5.38;;;;;;;;;;8325987;28;20421;-88
2023/07/20 03:58:48;;;;;;;9.90;5.45;;;;;;;;;;8338057;28;20071;-89
2023/07/20 04:02:51;;;;;;;10.93;5.78;;;;;;;;;;8320912;28;20041;-86
2023/07/20 04:06:53;;;;;;;9.65;6.55;;;;;;;;;;8327839;28;20073;-87
2023/07/20 04:10:57;;;;;;;9.52;7.47;;;;;;;;;;8325315;28;20046;-88
2023/07/20 04:15:01;;;;;;;10.30;7.10;;;;;;;;;;8325031;28;20049;-89
2023/07/20 04:19:04;;;;;;;9.15;6.47;;;;;;;;;;8324809;28;20407;-86
2023/07/20 04:23:07;;;;;;;9.70;6.25;;;;;;;;;;8324627;28;20101;-86
2023/07/20 04:27:10;;;;;;;10.70;6.50;;;;;;;;;;8324725;28;20050;-88
2023/07/20 04:31:15;;;;;;;13.98;6.60;;;;;;;;;;8324195;28;20050;-88
2023/07/20 04:35:39;;;;;;;9.38;6.40;;;;;;;;;;8324627;28;20531;-90
2023/07/20 04:39:42;;;;;;;11.40;7.43;;;;;;;;;;8337564;28;20142;-89
2023/07/20 04:43:45;;;;;;;9.85;6.40;;;;;;;;;;8325511;28;20057;-88
2023/07/20 04:47:51;;;;;;;9.65;6.70;;;;;;;;;;8324381;28;20048;-88
2023/07/20 04:51:54;;;;;;;11.13;6.47;;;;;;;;;;8323992;28;20052;-88
2023/07/20 04:55:57;;;;;;;9.20;6.68;;;;;;;;;;8323979;28;20046;-89
2023/07/20 04:59:59;;;;;;;14.93;10.45;;;;;;;;;;8318173;28;20516;-89
2023/07/20 05:04:03;;;;;;;19.75;12.25;;;;;;;;;;8325418;28;20059;-87
2023/07/20 05:08:06;;;;;;;15.75;10.10;;;;;;;;;;8324862;28;20182;-88
2023/07/20 05:12:11;;;;;;;12.73;8.95;;;;;;;;;;8334491;28;20060;-89
2023/07/20 05:16:14;;;;;;;12.85;7.25;;;;;;;;;;8336737;28;20050;-89
2023/07/20 05:20:20;;;;;;;11.10;6.13;;;;;;;;;;8347828;28;20144;-89
2023/07/20 05:24:22;;;;;;;14.13;7.70;;;;;;;;;;8336467;28;20042;-90
2023/07/20 05:28:26;;;;;;;11.18;6.40;;;;;;;;;;8335392;28;20042;-91
2023/07/20 05:32:29;;;;;;;10.23;6.85;;;;;;;;;;8335271;28;20512;-90
2023/07/20 05:36:33;;;;;;;34.80;21.63;;;;;;;;;;8346298;28;20468;-90
2023/07/20 05:40:38;;;;;;;14.55;11.07;;;;;;;;;;8348741;28;20521;-88
2023/07/20 05:44:42;;;;;;;17.15;6.53;;;;;;;;;;8355791;28;20053;-90
2023/07/20 05:48:45;;;;;;;10.32;6.75;;;;;;;;;;8336997;28;20118;-90
2023/07/20 05:52:49;;;;;;;9.75;8.50;;;;;;;;;;8346510;28;20136;-89
2023/07/20 05:56:52;;;;;;;7.75;5.30;;;;;;;;;;8352244;28;20065;-90
2023/07/20 06:00:55;;;;;;;7.38;4.80;;;;;;;;;;8330366;28;20038;-90
2023/07/20 06:04:58;;;;;;;9.93;7.10;;;;;;;;;;8352969;28;20049;-91
2023/07/20 06:09:05;;;;;;;8.63;5.70;;;;;;;;;;8332798;28;20037;-85
2023/07/20 06:13:08;;;;;;;22.92;20.00;;;;;;;;;;8352810;28;20120;-85
2023/07/20 06:17:11;;;;;;;7.88;5.15;;;;;;;;;;8338244;28;20049;-86
2023/07/20 06:21:14;;;;;;;8.13;4.82;;;;;;;;;;8333136;28;20139;-86
2023/07/20 06:25:20;;;;;;;8.45;3.90;;;;;;;;;;8351291;28;20049;-86
2023/07/20 06:29:23;;;;;;;15.75;4.60;;;;;;;;;;8339714;28;20083;-87
2023/07/20 06:33:26;;;;;;;9.38;4.15;;;;;;;;;;8349664;28;20113;-91
2023/07/20 06:37:29;;;;;;;10.88;4.80;;;;;;;;;;8339702;28;20448;-90
2023/07/20 06:41:33;;;;;;;17.15;4.60;;;;;;;;;;8340838;28;20065;-88
2023/07/20 06:45:36;;;;;;;10.98;3.80;;;;;;;;;;8341036;28;20041;-88
2023/07/20 06:49:38;;;;;;;15.90;4.10;;;;;;;;;;8356501;28;20079;-90
2023/07/20 06:53:41;;;;;;;5.28;3.30;;;;;;;;;;8358006;28;20132;-92
2023/07/20 06:57:46;;;;;;;6.13;3.55;;;;;;;;;;8336805;28;20072;-93
2023/07/20 07:01:49;;;;;;;6.20;3.60;;;;;;;;;;8342469;28;20061;-93
2023/07/20 07:05:56;;;;;;;6.63;3.80;;;;;;;;;;8346978;28;20132;-93
2023/07/20 07:09:59;;;;;;;7.38;3.65;;;;;;;;;;8346749;28;20110;-90
2023/07/20 07:14:03;;;;;;;7.57;4.22;;;;;;;;;;8327538;28;20077;-91
2023/07/20 07:18:06;;;;;;;14.18;5.40;;;;;;;;;;8340517;28;20399;-92
2023/07/20 07:22:09;;;;;;;11.40;5.10;;;;;;;;;;8345239;28;20060;-92
2023/07/20 07:26:12;;;;;;;11.07;4.50;;;;;;;;;;8333103;28;20465;-92
2023/07/20 07:30:17;;;;;;;10.43;4.00;;;;;;;;;;8345216;28;20554;-91
2023/07/20 07:34:19;;;;;;;6.35;3.10;;;;;;;;;;8345325;28;20054;-88
2023/07/20 07:38:22;;;;;;;6.72;3.42;;;;;;;;;;8328339;28;20563;-92
2023/07/20 07:42:25;;;;;;;7.10;3.17;;;;;;;;;;8340009;28;20114;-93
2023/07/20 07:46:29;;;;;;;4.07;2.15;;;;;;;;;;8352379;28;20128;-92
2023/07/20 07:50:33;;;;;;;5.30;2.42;;;;;;;;;;8340091;28;20476;-92
2023/07/20 07:54:35;;;;;;;3.70;2.45;;;;;;;;;;8333931;28;20045;-91
2023/07/20 07:58:39;;;;;;;3.78;2.20;;;;;;;;;;8358541;28;20048;-93
2023/07/20 08:02:44;;;;;;;4.38;2.00;;;;;;;;;;8333110;28;20052;-93
2023/07/20 08:06:47;;;;;;;5.63;2.60;;;;;;;;;;8346625;28;20464;-93
2023/07/20 08:10:50;;;;;;;7.25;2.50;;;;;;;;;;8358313;28;20065;-94
2023/07/20 08:14:53;;;;;;;5.95;2.47;;;;;;;;;;8356136;28;20440;-91
2023/07/20 08:18:57;;;;;;;5.35;2.60;;;;;;;;;;8348865;28;20473;-91
2023/07/20 08:23:00;;;;;;;7.80;3.35;;;;;;;;;;8339494;28;20140;-91
2023/07/20 08:27:03;;;;;;;3.83;2.70;;;;;;;;;;8353118;28;20564;-93
2023/07/20 08:31:07;;;;;;;4.35;2.78;;;;;;;;;;8345748;28;20528;-85
2023/07/20 08:35:15;;;;;;;5.72;2.72;;;;;;;;;;8339708;28;20048;-85
2023/07/20 08:39:18;;;;;;;3.97;2.50;;;;;;;;;;8341498;28;20441;-88
2023/07/20 08:43:23;;;;;;;4.57;3.10;;;;;;;;;;8348163;28;20498;-89
2023/07/20 08:47:30;;;;;;;6.70;3.58;;;;;;;;;;8354068;28;20104;-88
2023/07/20 08:51:37;;;;;;;4.40;3.25;;;;;;;;;;8352359;28;20049;-89
2023/07/20 08:55:41;;;;;;;4.68;3.47;;;;;;;;;;8344221;28;20052;-92
2023/07/20 08:59:45;;;;;;;5.75;4.07;;;;;;;;;;8344380;28;20057;-89
2023/07/20 09:03:48;;;;;;;5.13;3.70;;;;;;;;;;8339256;28;20128;-87
2023/07/20 09:07:54;;;;;;;6.28;4.40;;;;;;;;;;8356587;28;20044;-86
2023/07/20 09:11:57;;;;;;;5.47;3.97;;;;;;;;;;8348062;28;20427;-91
2023/07/20 09:16:00;;;;;;;9.75;4.78;;;;;;;;;;8355472;28;20056;-91
2023/07/20 09:20:10;;;;;;;8.80;5.38;;;;;;;;;;8342002;28;20133;-95
2023/07/20 09:24:15;;;;;;;7.45;4.43;;;;;;;;;;8349953;28;20041;-88
2023/07/20 09:28:18;;;;;;;7.47;4.60;;;;;;;;;;8353907;28;20041;-86
2023/07/20 09:32:23;;;;;;;8.55;4.78;;;;;;;;;;8351470;28;20088;-88
2023/07/20 09:36:28;;;;;;;9.10;5.60;;;;;;;;;;8347376;28;20037;-88
2023/07/20 09:40:39;;;;;;;8.85;6.03;;;;;;;;;;8353953;28;20068;-92
2023/07/20 09:44:45;;;;;;;9.43;5.88;;;;;;;;;;8353667;28;20052;-93
2023/07/20 09:48:54;;;;;;;16.90;6.93;;;;;;;;;;8347875;28;20518;-94
2023/07/20 09:52:58;;;;;;;12.27;7.03;;;;;;;;;;8344520;28;20049;-94
2023/07/20 09:57:03;;;;;;;13.45;7.70;;;;;;;;;;8344923;28;20545;-94
2023/07/20 10:01:09;;;;;;;11.90;8.30;;;;;;;;;;8348518;28;20123;-93
2023/07/20 10:05:15;;;;;;;11.88;7.85;;;;;;;;;;8350500;28;20048;-91
2023/07/20 10:09:25;;;;;;;11.00;7.97;;;;;;;;;;8357983;28;20052;-87
2023/07/20 10:13:31;;;;;;;12.27;8.07;;;;;;;;;;8332674;28;20042;-89
2023/07/20 10:17:34;;;;;;;12.38;8.18;;;;;;;;;;8335093;28;20045;-94
2023/07/20 10:21:42;;;;;;;11.00;7.60;;;;;;;;;;8345811;28;20395;-93
2023/07/20 10:25:47;;;;;;;11.77;8.15;;;;;;;;;;8348979;28;20144;-93
2023/07/20 10:29:53;;;;;;;13.68;9.07;;;;;;;;;;8346483;28;20064;-89
2023/07/20 10:33:57;;;;;;;14.95;10.15;;;;;;;;;;8361316;28;20087;-90
2023/07/20 10:38:03;;;;;;;13.45;8.32;;;;;;;;;;8360665;28;20045;-88
2023/07/20 10:42:09;;;;;;;12.13;8.43;;;;;;;;;;8359788;28;20124;-93
2023/07/20 10:46:14;;;;;;;12.43;8.32;;;;;;;;;;8357183;28;20048;-85
2023/07/20 10:50:17;;;;;;;10.57;7.07;;;;;;;;;;8351690;28;20396;-91
2023/07/20 10:54:49;;;;;;;12.75;8.07;;;;;;;;;;8342240;28;20120;-93
2023/07/20 10:58:58;;;;;;;10.13;6.55;;;;;;;;;;8361163;28;20044;-91
2023/07/20 11:03:02;;;;;;;13.77;5.85;;;;;;;;;;8355564;28;20049;-90
2023/07/20 11:07:06;;;;;;;9.00;4.88;;;;;;;;;;8359921;28;20135;-92
2023/07/20 11:11:25;;;;;;;8.27;4.95;;;;;;;;;;8339366;28;20123;-92
2023/07/20 11:15:28;;;;;;;10.38;5.05;;;;;;;;;;8328818;28;20128;-89
2023/07/20 11:19:32;;;;;;;6.60;4.80;;;;;;;;;;8352960;28;20077;-88
2023/07/20 11:23:35;;;;;;;10.75;4.90;;;;;;;;;;8347439;28;20057;-90
2023/07/20 11:27:47;;;;;;;6.45;4.25;;;;;;;;;;8338461;28;20106;-90
2023/07/20 11:31:50;;;;;;;9.13;4.35;;;;;;;;;;8349519;28;20061;-89
2023/07/20 11:35:55;;;;;;;7.20;4.55;;;;;;;;;;8357889;28;20567;-92
2023/07/20 11:39:58;;;;;;;7.15;4.28;;;;;;;;;;8340103;28;20132;-90
2023/07/20 11:44:01;;;;;;;6.60;4.05;;;;;;;;;;8332305;28;20404;-92
2023/07/20 11:48:04;;;;;;;5.22;3.50;;;;;;;;;;8355268;28;20064;-91
2023/07/20 11:52:09;;;;;;;12.27;3.60;;;;;;;;;;8339637;28;20076;-89
2023/07/20 11:56:12;;;;;;;6.15;3.63;;;;;;;;;;8347389;28;20502;-90
2023/07/20 12:00:22;;;;;;;6.20;3.28;;;;;;;;;;8354095;28;20053;-87
2023/07/20 12:04:25;;;;;;;6.83;3.27;;;;;;;;;;8339826;28;20049;-88
2023/07/20 12:08:29;;;;;;;4.25;2.97;;;;;;;;;;8346238;28;20053;-91
2023/07/20 12:12:33;;;;;;;4.20;2.90;;;;;;;;;;8349925;28;20074;-87
2023/07/20 12:16:38;;;;;;;4.88;2.70;;;;;;;;;;8348673;28;20045;-86
2023/07/20 12:20:42;;;;;;;5.05;3.08;;;;;;;;;;8339693;28;20064;-89
2023/07/20 12:24:47;;;;;;;4.93;2.70;;;;;;;;;;8347342;28;20101;-91
2023/07/20 12:28:50;;;;;;;5.95;2.83;;;;;;;;;;8323324;28;20171;-91
2023/07/20 12:32:53;;;;;;;3.65;3.03;;;;;;;;;;8336532;28;20061;-89
2023/07/20 12:36:57;;;;;;;4.57;2.90;;;;;;;;;;8330921;28;20044;-88
2023/07/20 12:41:02;;;;;;;12.73;3.08;;;;;;;;;;8334665;28;20105;-92
2023/07/20 12:45:05;;;;;;;4.85;2.90;;;;;;;;;;8338905;28;20052;-85
2023/07/20 12:49:08;;;;;;;4.82;2.92;;;;;;;;;;8328986;28;20045;-88
2023/07/20 12:53:11;;;;;;;3.38;2.75;;;;;;;;;;8324923;28;20205;-92
2023/07/20 12:57:16;;;;;;;3.40;2.40;;;;;;;;;;8338395;28;20069;-91
2023/07/20 13:01:18;;;;;;;5.30;2.25;;;;;;;;;;8336924;28;20076;-91
2023/07/20 13:05:21;;;;;;;2.97;2.33;;;;;;;;;;8332804;28;20512;-92
2023/07/20 13:09:24;;;;;;;5.47;2.50;;;;;;;;;;8338786;28;20132;-86
2023/07/20 13:13:28;;;;;;;4.35;2.20;;;;;;;;;;8342305;28;20396;-90
2023/07/20 13:17:31;;;;;;;4.40;2.80;;;;;;;;;;8334228;28;20049;-91
2023/07/20 13:21:34;;;;;;;6.80;2.60;;;;;;;;;;8342157;28;20041;-88
2023/07/20 13:25:37;;;;;;;4.82;2.72;;;;;;;;;;8340035;28;20480;-91
2023/07/20 13:29:41;;;;;;;3.00;2.30;;;;;;;;;;8332945;28;20124;-89
2023/07/20 13:33:44;;;;;;;3.88;2.60;;;;;;;;;;8348014;27;20061;-91
2023/07/20 13:37:48;;;;;;;2.83;2.00;;;;;;;;;;8363445;27;20504;-92
2023/07/20 13:41:52;;;;;;;2.10;1.40;;;;;;;;;;8336514;28;20044;-89
2023/07/20 13:45:57;;;;;;;1.63;1.30;;;;;;;;;;8330937;28;20454;-91
2023/07/20 13:50:01;;;;;;;3.78;1.67;;;;;;;;;;8334698;28;20049;-88
2023/07/20 13:54:04;;;;;;;3.53;1.45;;;;;;;;;;8350980;28;20052;-88
2023/07/20 13:58:07;;;;;;;1.92;1.50;;;;;;;;;;8356048;28;20389;-88
2023/07/20 14:02:12;;;;;;;1.90;1.52;;;;;;;;;;8352054;28;20128;-87
2023/07/20 14:06:16;;;;;;;4.40;1.88;;;;;;;;;;8341341;28;20068;-89
2023/07/20 14:10:19;;;;;;;4.93;1.80;;;;;;;;;;8349519;28;20043;-89
2023/07/20 14:14:22;;;;;;;4.18;1.77;;;;;;;;;;8348306;28;20712;-89
2023/07/20 14:18:26;;;;;;;2.35;1.75;;;;;;;;;;8354616;28;20037;-89
2023/07/20 14:22:29;;;;;;;4.07;1.50;;;;;;;;;;8337339;28;20052;-89
2023/07/20 14:26:32;;;;;;;2.53;1.85;;;;;;;;;;8336340;28;20404;-88
2023/07/20 14:30:35;;;;;;;4.63;1.92;;;;;;;;;;8339592;28;20068;-85
2023/07/20 14:34:40;;;;;;;2.30;1.73;;;;;;;;;;8330385;28;20053;-89
2023/07/20 14:38:43;;;;;;;2.97;1.77;;;;;;;;;;8340211;28;20079;-89
2023/07/20 14:42:46;;;;;;;2.97;1.80;;;;;;;;;;8339504;28;20388;-89
2023/07/20 14:46:49;;;;;;;4.03;1.73;;;;;;;;;;8353516;28;20049;-88
2023/07/20 14:50:53;;;;;;;3.08;1.90;;;;;;;;;;8345884;28;20049;-88
2023/07/20 14:54:57;;;;;;;3.45;2.05;;;;;;;;;;8346038;28;20045;-89
2023/07/20 14:59:01;;;;;;;3.30;2.40;;;;;;;;;;8345496;28;20048;-89
2023/07/20 15:03:05;;;;;;;7.78;3.05;;;;;;;;;;8359254;28;20113;-88
2023/07/20 15:07:10;;;;;;;8.90;3.70;;;;;;;;;;8359599;28;20053;-88
2023/07/20 15:11:13;;;;;;;12.48;5.10;;;;;;;;;;8340574;28;20053;-88
2023/07/20 15:15:17;;;;;;;9.15;4.93;;;;;;;;;;8358899;28;20068;-87
2023/07/20 15:19:22;;;;;;;6.68;3.45;;;;;;;;;;8345303;28;20051;-89
2023/07/20 15:23:26;;;;;;;9.18;3.58;;;;;;;;;;8356913;28;20041;-87
2023/07/20 15:27:29;;;;;;;4.55;2.30;;;;;;;;;;8358865;28;20041;-89
2023/07/20 15:31:33;;;;;;;4.03;2.15;;;;;;;;;;8350618;28;20056;-88
2023/07/20 15:35:36;;;;;;;6.10;2.33;;;;;;;;;;8358194;28;20045;-86
2023/07/20 15:39:40;;;;;;;5.68;2.30;;;;;;;;;;8340181;28;20048;-87
2023/07/20 15:43:43;;;;;;;4.13;2.10;;;;;;;;;;8358081;28;20455;-86
2023/07/20 15:47:46;;;;;;;3.55;1.90;;;;;;;;;;8356633;28;20132;-88
2023/07/20 15:51:52;;;;;;;5.30;2.30;;;;;;;;;;8356398;28;20053;-88
2023/07/20 15:55:57;;;;;;;3.50;2.30;;;;;;;;;;8325158;28;20480;-87
2023/07/20 16:00:00;;;;;;;3.05;2.20;;;;;;;;;;8325285;28;20128;-88
2023/07/20 16:04:03;;;;;;;3.78;2.50;;;;;;;;;;8323605;28;20052;-89
2023/07/20 16:08:06;;;;;;;2.70;2.10;;;;;;;;;;8325547;28;20042;-87
2023/07/20 16:12:12;;;;;;;3.33;2.35;;;;;;;;;;8350986;28;20056;-88
2023/07/20 16:16:15;;;;;;;2.83;2.35;;;;;;;;;;8324945;28;20053;-87
2023/07/20 16:20:18;;;;;;;4.57;2.55;;;;;;;;;;8337778;28;20132;-87
2023/07/20 16:24:21;;;;;;;3.45;2.67;;;;;;;;;;8324409;28;20484;-87
2023/07/20 16:28:26;;;;;;;3.58;2.90;;;;;;;;;;8307290;28;20565;-88
2023/07/20 16:32:30;;;;;;;3.95;3.00;;;;;;;;;;8337452;28;20088;-88
2023/07/20 16:36:34;;;;;;;4.68;3.25;;;;;;;;;;8324315;28;20055;-87
2023/07/20 16:40:38;;;;;;;5.30;3.55;;;;;;;;;;8324360;28;20045;-86
2023/07/20 16:44:44;;;;;;;7.03;3.58;;;;;;;;;;8323961;28;20131;-88
2023/07/20 16:48:47;;;;;;;4.50;3.47;;;;;;;;;;8342395;28;20404;-89
2023/07/20 16:52:50;;;;;;;7.70;4.10;;;;;;;;;;8328327;28;20057;-88
2023/07/20 16:56:53;;;;;;;4.85;3.65;;;;;;;;;;8324416;28;20060;-88
2023/07/20 17:01:06;;;;;;;9.23;3.72;;;;;;;;;;8331102;28;20041;-87
2023/07/20 17:05:10;;;;;;;3.92;3.13;;;;;;;;;;8339137;28;20132;-88
2023/07/20 17:09:14;;;;;;;6.05;3.53;;;;;;;;;;8330970;28;20057;-88
2023/07/20 17:13:24;;;;;;;5.60;3.45;;;;;;;;;;8339585;28;20041;-85
2023/07/20 17:17:29;;;;;;;8.00;4.88;;;;;;;;;;8333864;28;20405;-88
2023/07/20 17:21:32;;;;;;;5.32;3.70;;;;;;;;;;8347787;28;20052;-88
2023/07/20 17:25:38;;;;;;;6.35;3.78;;;;;;;;;;8338207;28;20037;-89
2023/07/20 17:29:41;;;;;;;7.32;4.20;;;;;;;;;;8338129;28;20128;-88
2023/07/20 17:33:47;;;;;;;8.15;4.65;;;;;;;;;;8353540;28;20057;-86
2023/07/20 17:37:50;;;;;;;5.55;4.50;;;;;;;;;;8343407;28;20461;-88
2023/07/20 17:42:00;;;;;;;7.30;4.47;;;;;;;;;;8331982;28;20046;-88
2023/07/20 17:46:03;;;;;;;9.20;5.00;;;;;;;;;;8330790;28;20110;-87
2023/07/20 17:50:10;;;;;;;7.93;5.38;;;;;;;;;;8329957;28;20409;-87
2023/07/20 17:54:14;;;;;;;9.32;5.65;;;;;;;;;;8333955;28;20041;-87
2023/07/20 17:58:18;;;;;;;10.68;6.65;;;;;;;;;;8328656;28;20518;-87
2023/07/20 18:02:25;;;;;;;10.35;5.70;;;;;;;;;;8329454;28;20037;-87
2023/07/20 18:06:30;;;;;;;12.88;6.75;;;;;;;;;;8341905;28;20045;-87
2023/07/20 18:10:34;;;;;;;21.10;10.32;;;;;;;;;;8330875;28;20382;-87
2023/07/20 18:14:38;;;;;;;26.52;11.75;;;;;;;;;;8337543;28;20052;-87
2023/07/20 18:18:41;;;;;;;10.02;6.32;;;;;;;;;;8341104;28;20105;-88
2023/07/20 18:22:49;;;;;;;7.70;5.05;;;;;;;;;;8342556;28;20057;-86
2023/07/20 18:26:52;;;;;;;8.23;5.90;;;;;;;;;;8350199;28;20127;-85
2023/07/20 18:30:57;;;;;;;7.65;6.45;;;;;;;;;;8337048;28;20049;-87
2023/07/20 18:35:02;;;;;;;10.30;6.95;;;;;;;;;;8327419;28;20073;-89
2023/07/20 18:39:08;;;;;;;10.73;7.13;;;;;;;;;;8327647;28;20378;-85
2023/07/20 18:43:13;;;;;;;15.63;7.65;;;;;;;;;;8342592;28;20045;-85
2023/07/20 18:47:16;;;;;;;11.50;7.72;;;;;;;;;;8347031;28;20049;-88
2023/07/20 18:51:20;;;;;;;14.40;9.65;;;;;;;;;;8340427;28;20052;-88
2023/07/20 18:55:26;;;;;;;15.68;10.07;;;;;;;;;;8331651;28;20072;-86
2023/07/20 18:59:30;;;;;;;17.25;9.98;;;;;;;;;;8360024;28;20477;-86
2023/07/20 19:03:34;;;;;;;10.75;7.82;;;;;;;;;;8337013;28;20524;-87
2023/07/20 19:07:40;;;;;;;13.15;8.18;;;;;;;;;;8326463;28;20053;-87
2023/07/20 19:11:47;;;;;;;12.13;8.00;;;;;;;;;;8326710;28;20052;-87
2023/07/20 19:15:55;;;;;;;8.68;6.97;;;;;;;;;;8326529;28;20053;-87
2023/07/20 19:19:59;;;;;;;10.95;6.82;;;;;;;;;;8326347;28;20045;-88
2023/07/20 19:24:04;;;;;;;9.93;7.40;;;;;;;;;;8347282;28;20469;-86
2023/07/20 19:28:09;;;;;;;9.32;7.10;;;;;;;;;;8350462;28;20034;-86
2023/07/20 19:32:14;;;;;;;10.10;7.22;;;;;;;;;;8371543;28;20057;-85
2023/07/20 19:36:19;;;;;;;12.68;8.23;;;;;;;;;;8379420;27;20025;-85
2023/07/20 19:40:25;;;;;;;10.38;8.10;;;;;;;;;;8400508;27;20021;-85
2023/07/20 19:44:33;;;;;;;11.20;7.80;;;;;;;;;;8388534;27;20460;-87
2023/07/20 19:48:36;;;;;;;12.55;8.10;;;;;;;;;;8360600;28;20053;-87
2023/07/20 19:52:43;;;;;;;10.10;6.97;;;;;;;;;;8346280;28;20057;-87
2023/07/20 19:56:46;;;;;;;8.55;6.78;;;;;;;;;;8379086;28;20126;-87
2023/07/20 20:00:51;;;;;;;9.38;7.28;;;;;;;;;;8328134;28;20504;-87
2023/07/20 20:04:55;;;;;;;11.82;7.95;;;;;;;;;;8331840;28;20055;-86
2023/07/20 20:09:01;;;;;;;12.05;7.30;;;;;;;;;;8325385;28;20049;-86
2023/07/20 20:13:05;;;;;;;12.60;8.20;;;;;;;;;;8338533;28;20050;-87
2023/07/20 20:17:09;;;;;;;11.38;8.45;;;;;;;;;;8324796;28;20049;-87
2023/07/20 20:21:15;;;;;;;11.88;7.85;;;;;;;;;;8307260;28;20049;-86
2023/07/20 20:25:22;;;;;;;13.80;7.72;;;;;;;;;;8333558;28;20049;-87
2023/07/20 20:29:27;;;;;;;10.07;7.45;;;;;;;;;;8324688;28;20056;-88
2023/07/20 20:33:35;;;;;;;10.43;7.43;;;;;;;;;;8324974;28;20045;-89
2023/07/20 20:37:40;;;;;;;13.55;8.25;;;;;;;;;;8324837;28;20052;-86
2023/07/20 20:41:46;;;;;;;11.07;8.07;;;;;;;;;;8330268;28;20046;-86
2023/07/20 20:45:50;;;;;;;11.40;8.07;;;;;;;;;;8330049;28;20053;-86
2023/07/20 20:49:56;;;;;;;10.05;7.20;;;;;;;;;;8384850;27;20068;-87
2023/07/20 20:53:59;;;;;;;9.18;6.40;;;;;;;;;;8345864;28;20076;-86
2023/07/20 20:58:03;;;;;;;10.30;6.93;;;;;;;;;;8330017;28;20178;-86
2023/07/20 21:02:07;;;;;;;9.98;6.10;;;;;;;;;;8329538;28;20133;-87
2023/07/20 21:06:12;;;;;;;9.00;6.40;;;;;;;;;;8329834;28;20503;-86
2023/07/20 21:10:15;;;;;;;11.35;7.05;;;;;;;;;;8332440;28;20128;-87
2023/07/20 21:14:18;;;;;;;14.75;8.73;;;;;;;;;;8362802;28;20078;-86
2023/07/20 21:18:21;;;;;;;11.00;8.43;;;;;;;;;;8329367;28;20152;-87
2023/07/20 21:22:26;;;;;;;12.95;8.43;;;;;;;;;;8342913;28;20053;-88
2023/07/20 21:26:29;;;;;;;15.68;8.02;;;;;;;;;;8315170;28;20185;-87
2023/07/20 21:30:32;;;;;;;12.55;8.13;;;;;;;;;;8339526;28;20081;-86
2023/07/20 21:34:36;;;;;;;12.38;7.95;;;;;;;;;;8316486;28;20060;-87
2023/07/20 21:38:40;;;;;;;9.80;7.13;;;;;;;;;;8350456;28;20040;-87
2023/07/20 21:42:43;;;;;;;11.38;7.43;;;;;;;;;;8334962;28;20140;-86
2023/07/20 21:46:46;;;;;;;11.98;7.10;;;;;;;;;;8339183;28;20056;-87
2023/07/20 21:50:49;;;;;;;10.50;7.13;;;;;;;;;;8328574;28;20057;-87
2023/07/20 21:54:54;;;;;;;14.02;8.30;;;;;;;;;;8351276;28;20061;-87
2023/07/20 21:58:57;;;;;;;6.80;4.95;;;;;;;;;;8358986;28;20053;-87
2023/07/20 22:02:59;;;;;;;9.60;6.65;;;;;;;;;;8341923;28;20132;-86
2023/07/20 22:07:02;;;;;;;10.35;6.80;;;;;;;;;;8328340;28;20469;-87
2023/07/20 22:11:10;;;;;;;9.95;6.82;;;;;;;;;;8328208;28;20199;-86
2023/07/20 22:15:13;;;;;;;9.85;7.18;;;;;;;;;;8328132;28;20046;-87
2023/07/20 22:19:18;;;;;;;12.88;8.30;;;;;;;;;;8328220;28;20049;-87
2023/07/20 22:23:21;;;;;;;14.52;8.38;;;;;;;;;;8331455;28;20053;-86
2023/07/20 22:27:26;;;;;;;12.50;8.30;;;;;;;;;;8361174;28;20052;-85
2023/07/20 22:31:30;;;;;;;13.00;9.35;;;;;;;;;;8343085;28;20101;-86
2023/07/20 22:35:33;;;;;;;16.92;9.40;;;;;;;;;;8341007;28;20054;-88
2023/07/20 22:39:36;;;;;;;14.82;8.38;;;;;;;;;;8327889;28;20045;-87
2023/07/20 22:43:40;;;;;;;15.93;8.80;;;;;;;;;;8348105;28;20047;-86
2023/07/20 22:47:46;;;;;;;16.55;9.27;;;;;;;;;;8335066;28;20695;-86
2023/07/20 22:51:49;;;;;;;14.05;7.95;;;;;;;;;;8327613;28;20079;-86
2023/07/20 22:55:52;;;;;;;14.43;9.82;;;;;;;;;;8340404;28;20061;-86
2023/07/20 22:59:57;;;;;;;18.88;9.55;;;;;;;;;;8327109;28;20075;-85
2023/07/20 23:03:59;;;;;;;15.45;9.70;;;;;;;;;;8330277;28;20045;-86
2023/07/20 23:08:03;;;;;;;13.27;8.85;;;;;;;;;;8359718;28;20135;-85
2023/07/20 23:12:06;;;;;;;14.10;9.48;;;;;;;;;;8328402;28;20069;-86
2023/07/20 23:16:11;;;;;;;18.80;9.48;;;;;;;;;;8326824;28;20119;-85
2023/07/20 23:20:17;;;;;;;14.25;9.63;;;;;;;;;;8340178;28;20069;-86
2023/07/20 23:24:20;;;;;;;14.13;9.27;;;;;;;;;;8326474;28;20053;-86
2023/07/20 23:28:25;;;;;;;13.40;8.35;;;;;;;;;;8344853;28;20049;-86
2023/07/20 23:32:29;;;;;;;12.30;8.45;;;;;;;;;;8346977;28;20059;-86
2023/07/20 23:36:32;;;;;;;14.40;8.80;;;;;;;;;;8325833;28;20131;-85
2023/07/20 23:40:35;;;;;;;12.65;8.38;;;;;;;;;;8326029;28;20404;-85
2023/07/20 23:44:39;;;;;;;11.02;8.13;;;;;;;;;;8338956;28;20545;-86
2023/07/20 23:48:43;;;;;;;11.40;8.18;;;;;;;;;;8325757;28;20042;-87
2023/07/20 23:52:47;;;;;;;12.38;8.38;;;;;;;;;;8331503;28;20125;-85
2023/07/20 23:56:49;;;;;;;11.45;7.57;;;;;;;;;;8335972;28;20089;-86
